sensor_id;sensor_type;location;lat;lon;timestamp;pressure;altitude;pressure_sealevel;temperature;humidity
35888;BME280;21990;42.540;23.496;2023-09-19T00:02:16;93995.72;;;12.95;90.51
35888;BME280;21990;42.540;23.496;2023-09-19T00:04:43;93994.06;;;12.86;90.72
35888;BME280;21990;42.540;23.496;2023-09-19T00:07:08;93992.31;;;12.83;90.66
35888;BME280;21990;42.540;23.496;2023-09-19T00:09:37;93988.28;;;12.78;90.93
35888;BME280;21990;42.540;23.496;2023-09-19T00:12:06;93997.53;;;12.79;90.90
35888;BME280;21990;42.540;23.496;2023-09-19T00:14:32;93995.47;;;12.79;90.77
35888;BME280;21990;42.540;23.496;2023-09-19T00:17:04;93982.94;;;12.75;90.69
35888;BME280;21990;42.540;23.496;2023-09-19T00:19:36;93979.97;;;12.67;90.80
35888;BME280;21990;42.540;23.496;2023-09-19T00:22:08;93978.94;;;12.65;90.97
35888;BME280;21990;42.540;23.496;2023-09-19T00:24:33;93975.66;;;12.61;91.23
35888;BME280;21990;42.540;23.496;2023-09-19T00:26:59;93980.03;;;12.62;91.16
35888;BME280;21990;42.540;23.496;2023-09-19T00:29:25;93980.78;;;12.62;91.54
35888;BME280;21990;42.540;23.496;2023-09-19T00:31:55;93977.44;;;12.64;91.63
35888;BME280;21990;42.540;23.496;2023-09-19T00:34:21;93982.22;;;12.69;91.34
35888;BME280;21990;42.540;23.496;2023-09-19T00:36:47;93970.72;;;12.67;91.21
35888;BME280;21990;42.540;23.496;2023-09-19T00:39:12;93960.69;;;12.66;91.01
35888;BME280;21990;42.540;23.496;2023-09-19T00:41:38;93960.69;;;12.66;90.73
35888;BME280;21990;42.540;23.496;2023-09-19T00:44:04;93966.44;;;12.60;90.90
35888;BME280;21990;42.540;23.496;2023-09-19T00:46:31;93963.91;;;12.57;91.24
35888;BME280;21990;42.540;23.496;2023-09-19T00:48:58;93964.22;;;12.53;91.20
35888;BME280;21990;42.540;23.496;2023-09-19T00:51:25;93972.69;;;12.53;91.18
35888;BME280;21990;42.540;23.496;2023-09-19T00:53:53;93967.81;;;12.54;91.36
35888;BME280;21990;42.540;23.496;2023-09-19T00:56:19;93966.31;;;12.53;91.48
35888;BME280;21990;42.540;23.496;2023-09-19T00:58:48;93979.75;;;12.47;91.56
35888;BME280;21990;42.540;23.496;2023-09-19T01:01:14;93968.94;;;12.45;91.18
35888;BME280;21990;42.540;23.496;2023-09-19T01:03:41;93978.44;;;12.48;90.93
35888;BME280;21990;42.540;23.496;2023-09-19T01:06:07;93970.81;;;12.43;91.15
35888;BME280;21990;42.540;23.496;2023-09-19T01:08:36;93965.00;;;12.35;91.59
35888;BME280;21990;42.540;23.496;2023-09-19T01:11:11;93965.00;;;12.35;91.32
35888;BME280;21990;42.540;23.496;2023-09-19T01:17:03;93962.25;;;12.29;91.73
35888;BME280;21990;42.540;23.496;2023-09-19T01:22:48;93973.53;;;12.29;92.11
35888;BME280;21990;42.540;23.496;2023-09-19T01:28:39;93966.91;;;12.27;91.76
35888;BME280;21990;42.540;23.496;2023-09-19T01:31:11;93975.16;;;12.25;91.68
35888;BME280;21990;42.540;23.496;2023-09-19T01:34:12;93974.00;;;12.15;92.06
35888;BME280;21990;42.540;23.496;2023-09-19T01:36:38;93960.13;;;12.17;91.90
35888;BME280;21990;42.540;23.496;2023-09-19T01:39:11;93965.53;;;12.15;91.62
35888;BME280;21990;42.540;23.496;2023-09-19T01:44:05;93956.59;;;12.11;91.80
35888;BME280;21990;42.540;23.496;2023-09-19T01:46:39;93953.59;;;12.03;92.17
35888;BME280;21990;42.540;23.496;2023-09-19T01:49:15;93954.63;;;12.06;92.07
35888;BME280;21990;42.540;23.496;2023-09-19T01:54:27;93946.66;;;12.04;91.73
35888;BME280;21990;42.540;23.496;2023-09-19T02:00:11;93946.47;;;12.02;91.70
35888;BME280;21990;42.540;23.496;2023-09-19T02:02:44;93953.16;;;11.99;91.62
35888;BME280;21990;42.540;23.496;2023-09-19T02:05:12;93942.41;;;11.98;91.49
35888;BME280;21990;42.540;23.496;2023-09-19T02:07:38;93948.81;;;11.98;91.53
35888;BME280;21990;42.540;23.496;2023-09-19T02:10:05;93953.69;;;11.98;91.54
35888;BME280;21990;42.540;23.496;2023-09-19T02:12:31;93947.28;;;11.97;91.24
35888;BME280;21990;42.540;23.496;2023-09-19T02:14:58;93952.22;;;11.91;91.36
35888;BME280;21990;42.540;23.496;2023-09-19T02:17:25;93934.28;;;11.88;91.12
35888;BME280;21990;42.540;23.496;2023-09-19T02:19:54;93946.09;;;11.87;91.12
35888;BME280;21990;42.540;23.496;2023-09-19T02:22:23;93942.56;;;11.86;91.08
35888;BME280;21990;42.540;23.496;2023-09-19T02:24:50;93942.56;;;11.86;91.04
35888;BME280;21990;42.540;23.496;2023-09-19T02:27:16;93944.34;;;11.84;91.05
35888;BME280;21990;42.540;23.496;2023-09-19T02:29:43;93953.13;;;11.80;91.27
35888;BME280;21990;42.540;23.496;2023-09-19T02:32:08;93954.88;;;11.83;91.18
35888;BME280;21990;42.540;23.496;2023-09-19T02:34:37;93953.13;;;11.80;91.15
35888;BME280;21990;42.540;23.496;2023-09-19T02:37:07;93952.38;;;11.80;90.94
35888;BME280;21990;42.540;23.496;2023-09-19T02:39:36;93945.78;;;11.72;90.89
35888;BME280;21990;42.540;23.496;2023-09-19T02:42:02;93953.22;;;11.75;90.75
35888;BME280;21990;42.540;23.496;2023-09-19T02:44:29;93942.97;;;11.72;90.65
35888;BME280;21990;42.540;23.496;2023-09-19T02:46:55;93947.84;;;11.71;90.33
35888;BME280;21990;42.540;23.496;2023-09-19T02:49:22;93942.47;;;11.68;90.52
35888;BME280;21990;42.540;23.496;2023-09-19T02:51:48;93945.28;;;11.68;90.21
35888;BME280;21990;42.540;23.496;2023-09-19T02:54:14;93932.03;;;11.63;90.05
35888;BME280;21990;42.540;23.496;2023-09-19T02:56:41;93935.50;;;11.50;90.36
35888;BME280;21990;42.540;23.496;2023-09-19T02:59:06;93933.56;;;11.39;90.89
35888;BME280;21990;42.540;23.496;2023-09-19T03:01:32;93929.03;;;11.31;91.21
35888;BME280;21990;42.540;23.496;2023-09-19T03:03:59;93921.09;;;11.29;91.59
35888;BME280;21990;42.540;23.496;2023-09-19T03:06:24;93910.66;;;11.24;91.83
35888;BME280;21990;42.540;23.496;2023-09-19T03:08:50;93913.22;;;11.22;92.35
35888;BME280;21990;42.540;23.496;2023-09-19T03:11:17;93904.25;;;11.24;92.46
35888;BME280;21990;42.540;23.496;2023-09-19T03:13:51;93902.41;;;11.26;92.39
35888;BME280;21990;42.540;23.496;2023-09-19T03:16:17;93893.44;;;11.28;92.00
35888;BME280;21990;42.540;23.496;2023-09-19T03:18:44;93907.53;;;11.28;92.30
35888;BME280;21990;42.540;23.496;2023-09-19T03:21:10;93907.06;;;11.24;92.36
35888;BME280;21990;42.540;23.496;2023-09-19T03:23:35;93899.13;;;11.22;92.41
35888;BME280;21990;42.540;23.496;2023-09-19T03:26:01;93900.66;;;11.23;92.35
35888;BME280;21990;42.540;23.496;2023-09-19T03:28:27;93902.72;;;11.23;92.33
35888;BME280;21990;42.540;23.496;2023-09-19T03:31:04;93900.88;;;11.25;92.08
35888;BME280;21990;42.540;23.496;2023-09-19T03:33:30;93909.88;;;11.24;91.93
35888;BME280;21990;42.540;23.496;2023-09-19T03:36:00;93913.00;;;11.20;91.81
35888;BME280;21990;42.540;23.496;2023-09-19T03:38:27;93909.94;;;11.18;91.91
35888;BME280;21990;42.540;23.496;2023-09-19T03:40:54;93913.53;;;11.19;92.00
35888;BME280;21990;42.540;23.496;2023-09-19T03:43:19;93909.72;;;11.16;91.70
35888;BME280;21990;42.540;23.496;2023-09-19T03:45:45;93914.59;;;11.16;91.65
35888;BME280;21990;42.540;23.496;2023-09-19T03:48:12;93913.34;;;11.11;92.10
35888;BME280;21990;42.540;23.496;2023-09-19T03:50:38;93913.34;;;11.11;92.22
35888;BME280;21990;42.540;23.496;2023-09-19T03:53:04;93909.25;;;11.12;91.75
35888;BME280;21990;42.540;23.496;2023-09-19T03:55:31;93904.34;;;11.13;91.84
35888;BME280;21990;42.540;23.496;2023-09-19T03:57:57;93909.75;;;11.11;91.67
35888;BME280;21990;42.540;23.496;2023-09-19T04:00:23;93909.97;;;11.13;91.58
35888;BME280;21990;42.540;23.496;2023-09-19T04:02:52;93913.88;;;11.10;91.83
35888;BME280;21990;42.540;23.496;2023-09-19T04:05:18;93918.75;;;11.09;91.73
35888;BME280;21990;42.540;23.496;2023-09-19T04:07:44;93920.53;;;11.12;91.75
35888;BME280;21990;42.540;23.496;2023-09-19T04:10:10;93921.03;;;11.11;91.85
35888;BME280;21990;42.540;23.496;2023-09-19T04:12:37;93912.34;;;11.09;91.74
35888;BME280;21990;42.540;23.496;2023-09-19T04:15:05;93926.16;;;11.12;91.78
35888;BME280;21990;42.540;23.496;2023-09-19T04:17:30;93922.56;;;11.12;91.80
35888;BME280;21990;42.540;23.496;2023-09-19T04:19:58;93927.69;;;11.13;92.25
35888;BME280;21990;42.540;23.496;2023-09-19T04:22:24;93920.28;;;11.10;92.05
35888;BME280;21990;42.540;23.496;2023-09-19T04:24:50;93932.53;;;11.13;92.44
35888;BME280;21990;42.540;23.496;2023-09-19T04:27:15;93931.03;;;11.12;92.28
35888;BME280;21990;42.540;23.496;2023-09-19T04:29:41;93943.38;;;11.09;93.46
35888;BME280;21990;42.540;23.496;2023-09-19T04:32:07;93947.72;;;11.10;94.38
35888;BME280;21990;42.540;23.496;2023-09-19T04:34:33;93945.34;;;11.14;94.34
35888;BME280;21990;42.540;23.496;2023-09-19T04:37:00;93942.03;;;11.15;95.17
35888;BME280;21990;42.540;23.496;2023-09-19T04:39:26;93940.44;;;11.20;94.96
35888;BME280;21990;42.540;23.496;2023-09-19T04:41:52;93941.91;;;11.26;94.78
35888;BME280;21990;42.540;23.496;2023-09-19T04:44:18;93938.28;;;11.31;95.18
35888;BME280;21990;42.540;23.496;2023-09-19T04:46:44;93935.69;;;11.33;96.45
35888;BME280;21990;42.540;23.496;2023-09-19T04:49:11;93936.41;;;11.39;96.41
35888;BME280;21990;42.540;23.496;2023-09-19T04:51:37;93937.59;;;11.44;96.46
35888;BME280;21990;42.540;23.496;2023-09-19T04:54:03;93940.97;;;11.42;97.14
35888;BME280;21990;42.540;23.496;2023-09-19T04:56:29;93939.13;;;11.45;95.34
35888;BME280;21990;42.540;23.496;2023-09-19T04:58:54;93936.88;;;11.43;95.03
35888;BME280;21990;42.540;23.496;2023-09-19T05:01:20;93934.03;;;11.43;94.76
35888;BME280;21990;42.540;23.496;2023-09-19T05:03:48;93932.81;;;11.39;95.23
35888;BME280;21990;42.540;23.496;2023-09-19T05:06:20;93923.56;;;11.38;94.50
35888;BME280;21990;42.540;23.496;2023-09-19T05:08:51;93931.22;;;11.43;95.43
35888;BME280;21990;42.540;23.496;2023-09-19T05:11:21;93930.63;;;11.51;97.37
35888;BME280;21990;42.540;23.496;2023-09-19T05:13:48;93926.38;;;11.63;98.06
35888;BME280;21990;42.540;23.496;2023-09-19T05:16:15;93916.03;;;11.71;99.93
35888;BME280;21990;42.540;23.496;2023-09-19T05:18:41;93923.53;;;11.87;100.00
35888;BME280;21990;42.540;23.496;2023-09-19T05:21:07;93917.75;;;11.98;100.00
35888;BME280;21990;42.540;23.496;2023-09-19T05:23:33;93907.56;;;12.27;100.00
35888;BME280;21990;42.540;23.496;2023-09-19T05:25:59;93904.78;;;12.59;100.00
35888;BME280;21990;42.540;23.496;2023-09-19T05:28:26;93898.22;;;12.82;100.00
35888;BME280;21990;42.540;23.496;2023-09-19T05:30:52;93901.88;;;13.09;100.00
35888;BME280;21990;42.540;23.496;2023-09-19T05:33:19;93898.47;;;13.69;100.00
35888;BME280;21990;42.540;23.496;2023-09-19T05:35:45;93891.06;;;14.26;100.00
35888;BME280;21990;42.540;23.496;2023-09-19T05:38:13;93886.06;;;14.53;97.64
35888;BME280;21990;42.540;23.496;2023-09-19T05:40:39;93882.28;;;14.92;97.79
35888;BME280;21990;42.540;23.496;2023-09-19T05:43:11;93889.75;;;15.23;96.09
35888;BME280;21990;42.540;23.496;2023-09-19T05:45:36;93892.97;;;15.48;95.40
35888;BME280;21990;42.540;23.496;2023-09-19T05:48:11;93881.78;;;15.71;93.14
35888;BME280;21990;42.540;23.496;2023-09-19T05:50:38;93891.88;;;15.79;92.02
35888;BME280;21990;42.540;23.496;2023-09-19T05:53:04;93879.38;;;15.82;91.13
35888;BME280;21990;42.540;23.496;2023-09-19T05:55:30;93884.94;;;15.95;94.94
35888;BME280;21990;42.540;23.496;2023-09-19T05:57:56;93878.41;;;16.15;91.39
35888;BME280;21990;42.540;23.496;2023-09-19T06:00:23;93874.22;;;16.60;95.17
35888;BME280;21990;42.540;23.496;2023-09-19T06:02:52;93873.13;;;16.78;89.80
35888;BME280;21990;42.540;23.496;2023-09-19T06:05:18;93860.44;;;17.09;91.83
35888;BME280;21990;42.540;23.496;2023-09-19T06:07:43;93857.94;;;17.36;90.50
35888;BME280;21990;42.540;23.496;2023-09-19T06:10:09;93860.81;;;17.59;89.16
35888;BME280;21990;42.540;23.496;2023-09-19T06:12:42;93857.56;;;17.47;85.87
35888;BME280;21990;42.540;23.496;2023-09-19T06:15:12;93863.47;;;17.34;86.30
35888;BME280;21990;42.540;23.496;2023-09-19T06:17:51;93854.94;;;17.19;89.03
35888;BME280;21990;42.540;23.496;2023-09-19T06:20:17;93850.00;;;17.20;87.80
35888;BME280;21990;42.540;23.496;2023-09-19T06:22:45;93853.78;;;17.07;87.26
35888;BME280;21990;42.540;23.496;2023-09-19T06:25:12;93851.88;;;17.02;87.59
35888;BME280;21990;42.540;23.496;2023-09-19T06:27:49;93847.34;;;17.14;89.49
35888;BME280;21990;42.540;23.496;2023-09-19T06:30:17;93854.56;;;17.15;85.74
35888;BME280;21990;42.540;23.496;2023-09-19T06:32:43;93856.06;;;17.16;86.60
35888;BME280;21990;42.540;23.496;2023-09-19T06:35:10;93849.81;;;17.18;89.53
35888;BME280;21990;42.540;23.496;2023-09-19T06:37:40;93849.81;;;17.25;87.80
35888;BME280;21990;42.540;23.496;2023-09-19T06:40:10;93848.28;;;17.24;84.57
35888;BME280;21990;42.540;23.496;2023-09-19T06:42:46;93851.88;;;17.32;90.86
35888;BME280;21990;42.540;23.496;2023-09-19T06:45:14;93850.00;;;17.35;83.79
35888;BME280;21990;42.540;23.496;2023-09-19T06:47:46;93845.06;;;17.43;84.60
35888;BME280;21990;42.540;23.496;2023-09-19T06:50:20;93833.28;;;17.62;87.39
35888;BME280;21990;42.540;23.496;2023-09-19T06:52:48;93839.31;;;17.81;83.94
35888;BME280;21990;42.540;23.496;2023-09-19T06:55:17;93833.94;;;17.92;81.65
35888;BME280;21990;42.540;23.496;2023-09-19T06:57:47;93831.63;;;17.98;81.62
35888;BME280;21990;42.540;23.496;2023-09-19T07:00:14;93826.84;;;18.09;80.68
35888;BME280;21990;42.540;23.496;2023-09-19T07:02:59;93829.44;;;18.22;81.77
35888;BME280;21990;42.540;23.496;2023-09-19T07:05:30;93831.66;;;18.38;80.50
35888;BME280;21990;42.540;23.496;2023-09-19T07:08:00;93836.56;;;18.45;78.94
35888;BME280;21990;42.540;23.496;2023-09-19T07:10:29;93832.16;;;18.52;80.58
35888;BME280;21990;42.540;23.496;2023-09-19T07:12:59;93833.25;;;18.64;79.92
35888;BME280;21990;42.540;23.496;2023-09-19T07:15:26;93834.91;;;18.75;78.74
35888;BME280;21990;42.540;23.496;2023-09-19T07:17:52;93835.03;;;18.84;79.13
35888;BME280;21990;42.540;23.496;2023-09-19T07:20:19;93842.78;;;18.91;76.37
35888;BME280;21990;42.540;23.496;2023-09-19T07:22:45;93835.53;;;18.98;74.95
35888;BME280;21990;42.540;23.496;2023-09-19T07:25:10;93833.41;;;18.99;74.37
35888;BME280;21990;42.540;23.496;2023-09-19T07:27:36;93836.59;;;19.03;74.62
35888;BME280;21990;42.540;23.496;2023-09-19T07:30:01;93830.50;;;19.06;74.43
35888;BME280;21990;42.540;23.496;2023-09-19T07:32:27;93836.78;;;19.05;75.26
35888;BME280;21990;42.540;23.496;2023-09-19T07:34:52;93837.16;;;19.09;74.61
35888;BME280;21990;42.540;23.496;2023-09-19T07:37:20;93832.25;;;19.02;75.47
35888;BME280;21990;42.540;23.496;2023-09-19T07:39:46;93833.94;;;19.05;74.78
35888;BME280;21990;42.540;23.496;2023-09-19T07:42:12;93829.56;;;19.04;74.03
35888;BME280;21990;42.540;23.496;2023-09-19T07:44:43;93820.81;;;19.02;73.57
35888;BME280;21990;42.540;23.496;2023-09-19T07:47:14;93832.41;;;19.04;73.53
35888;BME280;21990;42.540;23.496;2023-09-19T07:49:39;93824.78;;;19.06;73.61
35888;BME280;21990;42.540;23.496;2023-09-19T07:52:07;93834.34;;;19.01;72.30
35888;BME280;21990;42.540;23.496;2023-09-19T07:54:33;93835.53;;;18.98;72.93
35888;BME280;21990;42.540;23.496;2023-09-19T07:57:04;93832.25;;;19.02;73.31
35888;BME280;21990;42.540;23.496;2023-09-19T07:59:29;93836.03;;;19.04;73.32
35888;BME280;21990;42.540;23.496;2023-09-19T08:01:55;93835.22;;;19.11;73.25
35888;BME280;21990;42.540;23.496;2023-09-19T08:04:20;93831.22;;;19.14;72.80
35888;BME280;21990;42.540;23.496;2023-09-19T08:06:46;93831.38;;;19.16;72.93
35888;BME280;21990;42.540;23.496;2023-09-19T08:09:12;93833.00;;;19.27;73.52
35888;BME280;21990;42.540;23.496;2023-09-19T08:11:41;93831.44;;;19.33;72.82
35888;BME280;21990;42.540;23.496;2023-09-19T08:14:07;93830.22;;;19.44;72.93
35888;BME280;21990;42.540;23.496;2023-09-19T08:16:34;93835.66;;;19.50;72.53
35888;BME280;21990;42.540;23.496;2023-09-19T08:18:59;93832.59;;;19.55;72.62
35888;BME280;21990;42.540;23.496;2023-09-19T08:21:25;93825.88;;;19.60;73.12
35888;BME280;21990;42.540;23.496;2023-09-19T08:23:53;93815.13;;;19.68;72.71
35888;BME280;21990;42.540;23.496;2023-09-19T08:26:18;93826.63;;;19.78;71.62
35888;BME280;21990;42.540;23.496;2023-09-19T08:28:45;93823.13;;;19.87;72.13
35888;BME280;21990;42.540;23.496;2023-09-19T08:31:10;93823.94;;;19.97;70.26
35888;BME280;21990;42.540;23.496;2023-09-19T08:33:37;93816.22;;;20.07;71.93
35888;BME280;21990;42.540;23.496;2023-09-19T08:36:03;93810.41;;;20.15;69.77
35888;BME280;21990;42.540;23.496;2023-09-19T08:38:35;93817.53;;;20.23;69.86
35888;BME280;21990;42.540;23.496;2023-09-19T08:41:05;93823.03;;;20.29;68.86
35888;BME280;21990;42.540;23.496;2023-09-19T08:43:31;93815.00;;;20.27;68.88
35888;BME280;21990;42.540;23.496;2023-09-19T08:46:20;93814.34;;;20.36;69.42
35888;BME280;21990;42.540;23.496;2023-09-19T08:49:08;93811.81;;;20.41;69.46
35888;BME280;21990;42.540;23.496;2023-09-19T08:51:45;93809.28;;;20.45;69.73
35888;BME280;21990;42.540;23.496;2023-09-19T08:54:35;93809.75;;;20.51;69.12
35888;BME280;21990;42.540;23.496;2023-09-19T08:57:07;93810.28;;;20.57;67.80
35888;BME280;21990;42.540;23.496;2023-09-19T08:59:41;93812.69;;;20.60;66.17
35888;BME280;21990;42.540;23.496;2023-09-19T09:02:12;93806.88;;;20.68;67.57
35888;BME280;21990;42.540;23.496;2023-09-19T09:04:41;93805.22;;;20.74;67.53
35888;BME280;21990;42.540;23.496;2023-09-19T09:07:12;93801.09;;;20.85;68.76
35888;BME280;21990;42.540;23.496;2023-09-19T09:09:44;93804.75;;;20.95;67.02
35888;BME280;21990;42.540;23.496;2023-09-19T09:12:14;93804.19;;;21.06;67.11
35888;BME280;21990;42.540;23.496;2023-09-19T09:14:44;93793.88;;;21.20;66.82
35888;BME280;21990;42.540;23.496;2023-09-19T09:17:11;93795.56;;;21.33;67.37
35888;BME280;21990;42.540;23.496;2023-09-19T09:19:37;93790.94;;;21.47;66.31
35888;BME280;21990;42.540;23.496;2023-09-19T09:22:11;93776.16;;;21.60;65.94
35888;BME280;21990;42.540;23.496;2023-09-19T09:24:37;93776.78;;;21.68;65.23
35888;BME280;21990;42.540;23.496;2023-09-19T09:27:15;93775.72;;;21.83;66.52
35888;BME280;21990;42.540;23.496;2023-09-19T09:29:47;93771.38;;;21.92;66.50
35888;BME280;21990;42.540;23.496;2023-09-19T09:34:55;93771.84;;;21.98;65.40
35888;BME280;21990;42.540;23.496;2023-09-19T09:37:24;93767.91;;;22.03;67.27
35888;BME280;21990;42.540;23.496;2023-09-19T09:39:59;93767.16;;;22.12;65.79
35888;BME280;21990;42.540;23.496;2023-09-19T09:42:44;93764.13;;;22.19;65.57
35888;BME280;21990;42.540;23.496;2023-09-19T09:45:19;93765.94;;;22.24;65.18
35888;BME280;21990;42.540;23.496;2023-09-19T09:47:54;93759.91;;;22.20;64.44
35888;BME280;21990;42.540;23.496;2023-09-19T09:50:30;93762.47;;;22.26;64.44
35888;BME280;21990;42.540;23.496;2023-09-19T09:53:26;93751.88;;;22.38;64.63
35888;BME280;21990;42.540;23.496;2023-09-19T09:56:08;93749.00;;;22.48;63.38
35888;BME280;21990;42.540;23.496;2023-09-19T09:58:49;93758.03;;;22.54;64.74
35888;BME280;21990;42.540;23.496;2023-09-19T10:01:16;93751.22;;;22.59;67.12
35888;BME280;21990;42.540;23.496;2023-09-19T10:03:43;93755.44;;;22.67;64.29
35888;BME280;21990;42.540;23.496;2023-09-19T10:06:17;93756.97;;;22.68;64.09
35888;BME280;21990;42.540;23.496;2023-09-19T10:09:06;93750.03;;;22.72;63.06
35888;BME280;21990;42.540;23.496;2023-09-19T10:11:34;93751.97;;;22.69;62.78
35888;BME280;21990;42.540;23.496;2023-09-19T10:14:27;93740.78;;;22.73;63.20
35888;BME280;21990;42.540;23.496;2023-09-19T10:16:58;93744.22;;;22.81;62.36
35888;BME280;21990;42.540;23.496;2023-09-19T10:19:37;93739.94;;;22.92;62.39
35888;BME280;21990;42.540;23.496;2023-09-19T10:22:04;93739.91;;;23.01;61.15
35888;BME280;21990;42.540;23.496;2023-09-19T10:24:33;93730.50;;;23.10;60.23
35888;BME280;21990;42.540;23.496;2023-09-19T10:27:02;93737.84;;;23.23;60.98
35888;BME280;21990;42.540;23.496;2023-09-19T10:29:32;93718.66;;;23.16;62.68
35888;BME280;21990;42.540;23.496;2023-09-19T10:32:03;93727.34;;;23.37;61.92
35888;BME280;21990;42.540;23.496;2023-09-19T10:34:34;93717.78;;;23.44;60.63
35888;BME280;21990;42.540;23.496;2023-09-19T10:37:02;93717.97;;;23.58;60.21
35888;BME280;21990;42.540;23.496;2023-09-19T10:39:32;93715.94;;;23.70;59.61
35888;BME280;21990;42.540;23.496;2023-09-19T10:42:02;93720.88;;;23.79;59.10
35888;BME280;21990;42.540;23.496;2023-09-19T10:44:32;93712.78;;;23.87;59.29
35888;BME280;21990;42.540;23.496;2023-09-19T10:46:58;93716.69;;;23.92;59.61
35888;BME280;21990;42.540;23.496;2023-09-19T10:49:25;93711.69;;;23.92;59.60
35888;BME280;21990;42.540;23.496;2023-09-19T10:51:56;93709.09;;;23.96;60.41
35888;BME280;21990;42.540;23.496;2023-09-19T10:54:29;93709.34;;;24.00;60.49
35888;BME280;21990;42.540;23.496;2023-09-19T10:56:58;93702.34;;;24.03;58.95
35888;BME280;21990;42.540;23.496;2023-09-19T10:59:25;93715.16;;;24.12;60.53
35888;BME280;21990;42.540;23.496;2023-09-19T11:01:55;93703.22;;;24.06;60.12
35888;BME280;21990;42.540;23.496;2023-09-19T11:04:35;93702.88;;;24.11;59.36
35888;BME280;21990;42.540;23.496;2023-09-19T11:07:11;93707.44;;;24.15;63.60
35888;BME280;21990;42.540;23.496;2023-09-19T11:09:53;93697.06;;;24.21;59.24
35888;BME280;21990;42.540;23.496;2023-09-19T11:14:55;93695.00;;;24.45;59.18
35888;BME280;21990;42.540;23.496;2023-09-19T11:30:41;93682.41;;;24.73;64.60
35888;BME280;21990;42.540;23.496;2023-09-19T11:33:20;93680.31;;;24.85;64.91
35888;BME280;21990;42.540;23.496;2023-09-19T11:49:18;93650.56;;;25.29;61.06
35888;BME280;21990;42.540;23.496;2023-09-19T11:51:50;93645.53;;;25.41;60.90
35888;BME280;21990;42.540;23.496;2023-09-19T11:54:20;93640.66;;;25.44;59.07
35888;BME280;21990;42.540;23.496;2023-09-19T11:56:51;93631.00;;;25.39;61.06
35888;BME280;21990;42.540;23.496;2023-09-19T11:59:24;93635.88;;;25.48;60.78
35888;BME280;21990;42.540;23.496;2023-09-19T12:01:58;93626.59;;;25.50;61.00
35888;BME280;21990;42.540;23.496;2023-09-19T12:04:39;93624.97;;;25.59;64.22
35888;BME280;21990;42.540;23.496;2023-09-19T12:07:11;93616.81;;;25.55;61.99
35888;BME280;21990;42.540;23.496;2023-09-19T12:09:44;93622.69;;;25.57;59.82
35888;BME280;21990;42.540;23.496;2023-09-19T12:12:23;93624.44;;;25.62;60.72
35888;BME280;21990;42.540;23.496;2023-09-19T12:14:50;93621.31;;;25.58;62.33
35888;BME280;21990;42.540;23.496;2023-09-19T12:17:18;93623.59;;;25.60;61.05
35888;BME280;21990;42.540;23.496;2023-09-19T12:19:56;93617.94;;;25.62;63.76
35888;BME280;21990;42.540;23.496;2023-09-19T12:22:22;93619.94;;;25.59;61.22
35888;BME280;21990;42.540;23.496;2023-09-19T12:24:48;93616.69;;;25.53;63.83
35888;BME280;21990;42.540;23.496;2023-09-19T12:27:14;93617.16;;;25.61;62.43
35888;BME280;21990;42.540;23.496;2023-09-19T12:29:44;93622.47;;;25.53;69.12
35888;BME280;21990;42.540;23.496;2023-09-19T12:32:10;93611.28;;;25.47;68.66
35888;BME280;21990;42.540;23.496;2023-09-19T12:34:36;93612.16;;;25.50;68.11
35888;BME280;21990;42.540;23.496;2023-09-19T12:37:08;93614.81;;;25.46;65.40
35888;BME280;21990;42.540;23.496;2023-09-19T12:39:38;93615.03;;;25.50;66.84
35888;BME280;21990;42.540;23.496;2023-09-19T12:42:10;93615.31;;;25.54;64.32
35888;BME280;21990;42.540;23.496;2023-09-19T12:44:44;93609.91;;;25.60;65.31
35888;BME280;21990;42.540;23.496;2023-09-19T12:47:15;93605.38;;;25.57;65.36
35888;BME280;21990;42.540;23.496;2023-09-19T12:50:13;93599.88;;;25.49;66.10
35888;BME280;21990;42.540;23.496;2023-09-19T12:52:52;93601.38;;;25.50;62.34
35888;BME280;21990;42.540;23.496;2023-09-19T12:58:11;93587.84;;;25.53;64.59
35888;BME280;21990;42.540;23.496;2023-09-19T13:00:46;93587.22;;;25.55;64.00
35888;BME280;21990;42.540;23.496;2023-09-19T13:03:27;93586.94;;;25.62;61.10
35888;BME280;21990;42.540;23.496;2023-09-19T13:05:58;93588.56;;;25.65;62.08
35888;BME280;21990;42.540;23.496;2023-09-19T13:08:37;93586.94;;;25.62;61.20
35888;BME280;21990;42.540;23.496;2023-09-19T13:11:15;93575.53;;;25.52;63.87
35888;BME280;21990;42.540;23.496;2023-09-19T13:14:32;93577.53;;;25.50;63.84
35888;BME280;21990;42.540;23.496;2023-09-19T13:16:33;93581.94;;;25.51;62.13
35888;BME280;21990;42.540;23.496;2023-09-19T13:18:59;93578.66;;;25.45;66.56
35888;BME280;21990;42.540;23.496;2023-09-19T13:21:30;93586.34;;;25.40;61.54
35888;BME280;21990;42.540;23.496;2023-09-19T13:24:24;93584.72;;;25.37;65.56
35888;BME280;21990;42.540;23.496;2023-09-19T13:26:54;93580.97;;;25.35;66.38
35888;BME280;21990;42.540;23.496;2023-09-19T13:29:20;93581.72;;;25.35;66.78
35888;BME280;21990;42.540;23.496;2023-09-19T13:31:49;93579.97;;;25.30;67.27
35888;BME280;21990;42.540;23.496;2023-09-19T13:34:15;93579.13;;;25.28;68.10
35888;BME280;21990;42.540;23.496;2023-09-19T13:36:43;93584.25;;;25.18;69.31
35888;BME280;21990;42.540;23.496;2023-09-19T13:39:09;93574.25;;;25.07;69.64
35888;BME280;21990;42.540;23.496;2023-09-19T13:41:35;93570.38;;;25.02;67.73
35888;BME280;21990;42.540;23.496;2023-09-19T13:44:05;93576.28;;;25.04;67.10
35888;BME280;21990;42.540;23.496;2023-09-19T13:46:31;93572.50;;;25.02;67.98
35888;BME280;21990;42.540;23.496;2023-09-19T13:49:01;93568.13;;;25.01;68.44
35888;BME280;21990;42.540;23.496;2023-09-19T13:51:30;93570.78;;;24.85;68.06
35888;BME280;21990;42.540;23.496;2023-09-19T13:53:56;93569.38;;;24.86;68.30
35888;BME280;21990;42.540;23.496;2023-09-19T13:56:22;93570.91;;;24.87;68.08